createdAt,value
2019-02-05T00:00:45.974Z,22.60
2019-02-05T00:03:21.356Z,23.20
2019-02-05T00:05:53.770Z,22.40
2019-02-05T00:08:25.299Z,22.20
2019-02-05T00:10:57.297Z,21.80
2019-02-05T00:13:28.812Z,21.70
2019-02-05T00:16:00.386Z,22.40
2019-02-05T00:18:32.136Z,21.30
2019-02-05T00:21:03.682Z,20.20
2019-02-05T00:23:35.832Z,21.40
2019-02-05T00:26:07.325Z,22.40
2019-02-05T00:28:38.853Z,22.90
2019-02-05T00:31:10.476Z,23.70
2019-02-05T00:33:42.200Z,23.30
2019-02-05T00:36:14.033Z,23.30
2019-02-05T00:38:45.684Z,23.30
2019-02-05T00:41:17.198Z,23.70
2019-02-05T00:43:48.745Z,24.20
2019-02-05T00:46:20.315Z,24.30
2019-02-05T00:48:52.430Z,24.60
2019-02-05T00:51:23.985Z,24.80
2019-02-05T00:53:55.497Z,24.70
2019-02-05T00:56:27.096Z,24.50
2019-02-05T00:58:58.583Z,23.20
2019-02-05T01:01:30.423Z,22.70
2019-02-05T01:04:02.219Z,23.30
2019-02-05T01:06:33.773Z,23.90
2019-02-05T01:09:07.536Z,24.10
2019-02-05T01:11:39.536Z,23.10
2019-02-05T01:14:12.881Z,22.20
2019-02-05T01:16:44.378Z,22.50
2019-02-05T01:19:16.328Z,22.80
2019-02-05T01:21:47.794Z,23.50
2019-02-05T01:24:20.447Z,23.80
2019-02-05T01:26:51.923Z,23.80
2019-02-05T01:29:23.398Z,24.40
2019-02-05T01:31:54.971Z,24.40
2019-02-05T01:34:26.584Z,24.70
2019-02-05T01:36:58.282Z,23.90
2019-02-05T01:39:29.748Z,23.00
2019-02-05T01:42:01.262Z,22.60
2019-02-05T01:44:32.687Z,22.70
2019-02-05T01:47:04.203Z,22.30
2019-02-05T01:49:36.532Z,22.60
2019-02-05T01:52:08.014Z,21.90
2019-02-05T01:54:39.535Z,21.30
2019-02-05T01:57:10.988Z,22.00
2019-02-05T01:59:42.687Z,22.90
2019-02-05T02:02:14.391Z,23.30
2019-02-05T02:04:45.941Z,22.20
2019-02-05T02:07:17.386Z,22.10
2019-02-05T02:09:48.827Z,21.60
2019-02-05T02:12:20.476Z,20.20
2019-02-05T02:14:51.960Z,20.10
2019-02-05T02:17:23.396Z,21.20
2019-02-05T02:19:55.108Z,22.20
2019-02-05T02:22:26.576Z,22.10
2019-02-05T02:24:58.399Z,22.70
2019-02-05T02:27:29.835Z,22.60
2019-02-05T02:30:02.453Z,23.20
2019-02-05T02:32:33.950Z,23.50
2019-02-05T02:35:05.458Z,21.90
2019-02-05T02:37:36.909Z,21.40
2019-02-05T02:40:09.098Z,21.90
2019-02-05T02:42:40.641Z,21.80
2019-02-05T02:45:13.342Z,22.30
2019-02-05T02:47:44.811Z,22.40
2019-02-05T02:50:17.868Z,22.90
2019-02-05T02:52:49.885Z,23.20
2019-02-05T02:55:21.417Z,23.60
2019-02-05T02:57:52.996Z,23.80
2019-02-05T03:00:24.541Z,23.40
2019-02-05T03:02:55.999Z,23.40
2019-02-05T03:05:27.815Z,23.40
2019-02-05T03:07:59.270Z,23.50
2019-02-05T03:10:32.113Z,23.20
2019-02-05T03:13:03.623Z,21.60
2019-02-05T03:15:35.424Z,21.50
2019-02-05T03:18:06.960Z,21.60
2019-02-05T03:20:38.913Z,22.20
2019-02-05T03:23:10.354Z,20.90
2019-02-05T03:25:41.904Z,21.20
2019-02-05T03:28:13.353Z,21.00
2019-02-05T03:30:44.879Z,21.00
2019-02-05T03:33:16.344Z,21.70
2019-02-05T03:35:48.136Z,22.20
2019-02-05T03:38:19.642Z,22.50
2019-02-05T03:41:10.609Z,22.80
2019-02-05T03:43:42.789Z,23.70
2019-02-05T03:46:17.972Z,24.10
2019-02-05T03:48:50.290Z,24.50
2019-02-05T03:51:47.115Z,24.50
2019-02-05T03:55:12.190Z,24.10
2019-02-05T03:58:52.403Z,24.50
2019-02-05T04:02:28.009Z,23.90
2019-02-05T04:05:33.404Z,24.10
2019-02-05T04:09:08.808Z,24.50
2019-02-05T04:12:44.427Z,25.00
2019-02-05T04:16:04.550Z,25.10
2019-02-05T04:19:20.208Z,25.40
2019-02-05T04:22:41.103Z,25.30
2019-02-05T04:26:14.384Z,25.40
2019-02-05T04:29:29.904Z,25.10
2019-02-05T04:32:52.377Z,25.50
2019-02-05T04:36:32.441Z,25.30
2019-02-05T04:40:32.147Z,24.70
2019-02-05T04:44:07.410Z,25.20
2019-02-05T04:47:19.042Z,25.60
2019-02-05T04:50:16.159Z,25.70
2019-02-05T04:53:32.846Z,25.30
2019-02-05T04:57:07.562Z,24.80
2019-02-05T05:00:29.646Z,25.10
2019-02-05T05:03:59.115Z,24.90
2019-02-05T05:06:58.513Z,25.20
2019-02-05T05:09:58.604Z,24.80
2019-02-05T05:12:31.091Z,24.60
2019-02-05T05:15:02.818Z,25.00
2019-02-05T05:17:34.370Z,25.10
2019-02-05T05:20:09.014Z,25.10
2019-02-05T05:22:40.457Z,24.60
2019-02-05T05:25:13.800Z,24.90
2019-02-05T05:27:45.868Z,24.90
2019-02-05T05:30:19.625Z,24.90
2019-02-05T05:32:51.560Z,24.90
2019-02-05T05:35:23.009Z,25.00
2019-02-05T05:37:54.735Z,24.90
2019-02-05T05:40:26.227Z,24.40
2019-02-05T05:42:57.832Z,24.30
2019-02-05T05:45:29.658Z,24.70
2019-02-05T05:48:01.267Z,24.70
2019-02-05T05:50:33.114Z,24.80
2019-02-05T05:53:05.244Z,24.90
2019-02-05T05:55:36.769Z,25.00
2019-02-05T05:58:08.353Z,25.10
2019-02-05T06:00:39.854Z,25.30
2019-02-05T06:03:11.342Z,25.30
2019-02-05T06:05:42.888Z,25.30
2019-02-05T06:08:14.575Z,25.30
2019-02-05T06:10:46.114Z,25.30
2019-02-05T06:13:17.792Z,24.80
2019-02-05T06:15:49.256Z,25.00
2019-02-05T06:18:21.141Z,24.40
2019-02-05T06:20:52.601Z,24.20
2019-02-05T06:23:24.035Z,24.70
2019-02-05T06:25:55.476Z,24.50
2019-02-05T06:28:34.779Z,24.70
2019-02-05T06:31:00.762Z,25.00
2019-02-05T06:33:32.230Z,25.00
2019-02-05T06:36:03.781Z,25.10
2019-02-05T06:38:35.207Z,24.90
2019-02-05T06:41:06.648Z,24.60
2019-02-05T06:43:38.591Z,24.70
2019-02-05T06:46:10.147Z,24.50
2019-02-05T06:48:41.630Z,24.60
2019-02-05T06:51:13.135Z,24.40
2019-02-05T06:53:44.645Z,23.60
2019-02-05T06:56:16.163Z,23.30
2019-02-05T06:58:47.865Z,23.90
2019-02-05T07:01:19.348Z,24.10
2019-02-05T07:03:50.842Z,24.40
2019-02-05T07:06:22.284Z,24.30
2019-02-05T07:08:53.739Z,24.70
2019-02-05T07:11:25.583Z,24.40
2019-02-05T07:13:58.228Z,24.60
2019-02-05T07:16:29.948Z,24.20
2019-02-05T07:19:01.477Z,24.30
2019-02-05T07:21:32.943Z,23.40
2019-02-05T07:24:04.890Z,22.80
2019-02-05T07:26:36.349Z,23.20
2019-02-05T07:29:08.648Z,23.40
2019-02-05T07:31:40.156Z,24.00
2019-02-05T07:34:11.884Z,24.20
2019-02-05T07:36:43.543Z,24.30
2019-02-05T07:39:14.998Z,24.60
2019-02-05T07:41:46.444Z,24.50
2019-02-05T07:44:17.936Z,24.10
2019-02-05T07:46:49.582Z,23.70
2019-02-05T07:49:21.112Z,24.00
2019-02-05T07:51:52.598Z,24.40
2019-02-05T07:54:24.138Z,24.80
2019-02-05T07:56:55.716Z,24.80
2019-02-05T07:59:27.571Z,24.20
2019-02-05T08:01:59.059Z,24.30
2019-02-05T08:04:30.577Z,24.00
2019-02-05T08:07:02.323Z,24.40
2019-02-05T08:09:33.850Z,23.70
2019-02-05T08:12:05.328Z,24.10
2019-02-05T08:14:38.438Z,24.00
2019-02-05T08:17:10.016Z,24.40
2019-02-05T08:19:41.763Z,24.50
2019-02-05T08:22:13.700Z,24.30
2019-02-05T08:24:45.287Z,24.50
2019-02-05T08:27:16.732Z,24.10
2019-02-05T08:29:48.572Z,24.40
2019-02-05T08:32:20.125Z,24.50
2019-02-05T08:34:51.591Z,24.10
2019-02-05T08:37:23.286Z,24.30
2019-02-05T08:39:54.834Z,24.40
2019-02-05T08:42:26.315Z,24.20
2019-02-05T08:44:57.779Z,24.40
2019-02-05T08:47:29.352Z,24.10
2019-02-05T08:50:01.091Z,24.70
2019-02-05T08:52:32.836Z,24.90
2019-02-05T08:55:04.421Z,24.60
2019-02-05T08:57:35.978Z,24.30
2019-02-05T09:00:12.379Z,24.40
2019-02-05T09:02:44.070Z,24.40
2019-02-05T09:05:16.000Z,24.10
2019-02-05T09:07:47.550Z,23.80
2019-02-05T09:10:31.422Z,23.70
2019-02-05T09:13:03.097Z,23.60
2019-02-05T09:15:35.263Z,24.10
2019-02-05T09:18:07.181Z,23.90
2019-02-05T09:20:38.729Z,24.10
2019-02-05T09:23:10.380Z,23.70
2019-02-05T09:25:41.990Z,23.60
2019-02-05T09:28:15.111Z,23.90
2019-02-05T09:30:46.952Z,23.50
2019-02-05T09:33:18.431Z,23.30
2019-02-05T09:35:49.938Z,23.70
2019-02-05T09:38:21.650Z,23.30
2019-02-05T09:40:53.170Z,23.00
2019-02-05T09:43:24.622Z,23.50
2019-02-05T09:45:56.448Z,23.40
2019-02-05T09:48:28.244Z,23.70
2019-02-05T09:50:59.755Z,23.70
2019-02-05T09:53:31.292Z,23.50
2019-02-05T09:56:03.694Z,23.70
2019-02-05T09:58:35.188Z,23.30
2019-02-05T10:01:07.078Z,23.10
2019-02-05T10:03:38.690Z,23.70
2019-02-05T10:06:10.128Z,24.00
2019-02-05T10:08:41.640Z,24.60
2019-02-05T10:11:13.100Z,25.00
2019-02-05T10:13:44.562Z,25.10
2019-02-05T10:16:16.044Z,25.00
2019-02-05T10:18:47.621Z,25.30
2019-02-05T10:21:19.124Z,25.30
2019-02-05T10:23:51.113Z,25.60
2019-02-05T10:26:22.717Z,25.80
2019-02-05T10:28:54.263Z,25.60
2019-02-05T10:31:26.325Z,25.70
2019-02-05T10:33:58.086Z,25.60
2019-02-05T10:36:30.060Z,25.00
2019-02-05T10:39:01.689Z,24.90
2019-02-05T10:41:34.799Z,24.60
2019-02-05T10:44:06.483Z,24.90
2019-02-05T10:46:38.259Z,25.20
2019-02-05T10:49:10.248Z,25.10
2019-02-05T10:51:41.761Z,25.30
2019-02-05T10:54:13.334Z,25.30
2019-02-05T10:56:44.896Z,25.50
2019-02-05T10:59:16.434Z,24.90
2019-02-05T11:01:48.348Z,24.70
2019-02-05T11:04:20.052Z,24.60
2019-02-05T11:06:51.539Z,24.60
2019-02-05T11:09:23.088Z,24.50
2019-02-05T11:11:54.901Z,24.50
2019-02-05T11:14:26.492Z,24.40
2019-02-05T11:16:58.216Z,24.50
2019-02-05T11:19:29.807Z,24.90
2019-02-05T11:22:01.295Z,25.30
2019-02-05T11:24:32.881Z,25.70
2019-02-05T11:27:04.351Z,25.90
2019-02-05T11:29:35.981Z,25.90
2019-02-05T11:32:08.185Z,25.70
2019-02-05T11:34:39.655Z,26.10
2019-02-05T11:37:11.236Z,26.00
2019-02-05T11:39:42.720Z,25.30
2019-02-05T11:42:14.192Z,24.80
2019-02-05T11:44:45.747Z,25.30
2019-02-05T11:47:17.259Z,25.30
2019-02-05T11:49:49.087Z,24.70
2019-02-05T11:52:20.717Z,25.00
2019-02-05T11:54:52.919Z,25.30
2019-02-05T11:57:25.361Z,24.10
2019-02-05T11:59:57.362Z,23.20
2019-02-05T12:02:28.972Z,23.60
2019-02-05T12:05:00.659Z,24.10
2019-02-05T12:07:32.174Z,24.60
2019-02-05T12:10:03.974Z,24.80
2019-02-05T12:12:35.919Z,25.00
2019-02-05T12:15:09.839Z,25.00
2019-02-05T12:17:41.586Z,24.80
2019-02-05T12:20:14.740Z,24.70
2019-02-05T12:22:46.263Z,22.40
2019-02-05T12:25:18.567Z,21.30
2019-02-05T12:27:50.197Z,21.90
2019-02-05T12:30:26.414Z,21.20
2019-02-05T12:32:57.950Z,20.40
2019-02-05T12:35:29.548Z,19.70
2019-02-05T12:38:01.014Z,19.60
2019-02-05T12:40:32.874Z,19.60
2019-02-05T12:43:04.424Z,19.30
2019-02-05T12:45:36.163Z,20.20
2019-02-05T12:48:07.819Z,19.40
2019-02-05T12:50:39.793Z,21.30
2019-02-05T12:53:11.296Z,21.90
2019-02-05T12:55:42.914Z,21.10
2019-02-05T12:58:14.397Z,21.20
2019-02-05T13:00:58.233Z,22.00
2019-02-05T13:03:25.776Z,22.50
2019-02-05T13:05:57.543Z,22.10
2019-02-05T13:08:29.088Z,22.30
2019-02-05T13:11:01.045Z,22.80
2019-02-05T13:13:32.753Z,23.40
2019-02-05T13:16:04.670Z,22.90
2019-02-05T13:18:37.324Z,23.40
2019-02-05T13:21:08.237Z,24.00
2019-02-05T13:23:39.785Z,24.40
2019-02-05T13:26:11.280Z,24.60
2019-02-05T13:28:43.056Z,24.90
2019-02-05T13:31:14.907Z,25.60
2019-02-05T13:33:46.761Z,25.70
2019-02-05T13:36:18.540Z,25.90
2019-02-05T13:38:50.049Z,25.60
2019-02-05T13:41:21.923Z,25.90
2019-02-05T13:43:53.432Z,25.90
2019-02-05T13:46:25.259Z,25.90
2019-02-05T13:48:57.094Z,25.90
2019-02-05T13:51:28.601Z,26.10
2019-02-05T13:54:00.288Z,26.40
2019-02-05T13:56:32.189Z,26.40
2019-02-05T13:59:03.758Z,26.40
2019-02-05T14:01:35.376Z,25.30
2019-02-05T14:04:06.936Z,24.20
2019-02-05T14:06:38.918Z,25.00
2019-02-05T14:09:13.923Z,25.70
2019-02-05T14:11:45.509Z,26.10
2019-02-05T14:14:17.066Z,26.20
2019-02-05T14:16:49.552Z,26.40
2019-02-05T14:19:21.423Z,26.20
2019-02-05T14:21:53.159Z,25.30
2019-02-05T14:24:24.652Z,24.80
2019-02-05T14:26:56.287Z,24.40
2019-02-05T14:29:27.771Z,23.00
2019-02-05T14:31:59.874Z,21.60
2019-02-05T14:34:31.534Z,22.90
2019-02-05T14:37:03.309Z,23.50
2019-02-05T14:39:35.101Z,24.10
2019-02-05T14:42:07.757Z,23.00
2019-02-05T14:44:39.372Z,23.30
2019-02-05T14:47:11.286Z,22.90
2019-02-05T14:49:42.712Z,22.40
2019-02-05T14:52:14.290Z,23.00
2019-02-05T14:54:45.928Z,22.30
2019-02-05T14:57:17.798Z,22.10
2019-02-05T14:59:49.426Z,21.90
2019-02-05T15:02:20.970Z,22.30
2019-02-05T15:04:52.807Z,22.60
2019-02-05T15:07:24.511Z,22.80
2019-02-05T15:09:56.150Z,22.90
2019-02-05T15:12:27.754Z,22.60
2019-02-05T15:14:59.228Z,21.60
2019-02-05T15:17:30.763Z,19.50
2019-02-05T15:20:02.710Z,19.90
2019-02-05T15:22:35.439Z,19.90
2019-02-05T15:25:08.674Z,20.50
2019-02-05T15:27:40.386Z,21.70
2019-02-05T15:30:17.610Z,23.30
2019-02-05T15:33:00.436Z,24.10
2019-02-05T15:35:32.344Z,24.30
2019-02-05T15:38:04.260Z,23.10
2019-02-05T15:40:36.196Z,22.40
2019-02-05T15:43:08.691Z,22.40
2019-02-05T15:45:40.209Z,21.80
2019-02-05T15:48:12.095Z,21.40
2019-02-05T15:50:43.804Z,22.40
2019-02-05T15:53:15.816Z,22.20
2019-02-05T15:55:48.426Z,22.40
2019-02-05T15:58:20.248Z,21.70
2019-02-05T16:00:51.839Z,21.40
2019-02-05T16:03:23.532Z,22.40
2019-02-05T16:05:55.309Z,22.00
2019-02-05T16:08:27.768Z,23.10
2019-02-05T16:10:59.349Z,22.50
2019-02-05T16:13:31.130Z,22.70
2019-02-05T16:16:02.823Z,22.30
2019-02-05T16:18:34.748Z,21.40
2019-02-05T16:21:06.754Z,21.10
2019-02-05T16:23:38.625Z,21.30
2019-02-05T16:26:10.078Z,21.40
2019-02-05T16:28:41.614Z,20.70
2019-02-05T16:31:13.103Z,20.90
2019-02-05T16:33:45.249Z,21.30
2019-02-05T16:36:16.899Z,20.90
2019-02-05T16:38:48.525Z,20.90
2019-02-05T16:41:20.016Z,21.00
2019-02-05T16:43:51.693Z,20.10
2019-02-05T16:46:23.682Z,20.50
2019-02-05T16:48:55.496Z,21.50
2019-02-05T16:51:26.998Z,22.10
2019-02-05T16:53:58.476Z,21.30
2019-02-05T16:56:30.222Z,21.90
2019-02-05T16:59:02.717Z,22.30
2019-02-05T17:01:34.353Z,22.20
2019-02-05T17:04:06.135Z,21.50
2019-02-05T17:06:38.028Z,21.80
2019-02-05T17:09:16.952Z,22.80
2019-02-05T17:11:48.559Z,23.40
2019-02-05T17:14:20.356Z,23.40
2019-02-05T17:16:51.867Z,23.80
2019-02-05T17:19:23.486Z,24.20
2019-02-05T17:21:55.508Z,24.50
2019-02-05T17:24:27.395Z,24.50
2019-02-05T17:26:58.964Z,25.10
2019-02-05T17:29:30.796Z,25.50
2019-02-05T17:32:02.381Z,25.30
2019-02-05T17:34:34.113Z,24.40
2019-02-05T17:37:05.858Z,22.10
2019-02-05T17:39:37.574Z,21.00
2019-02-05T17:42:09.226Z,20.70
2019-02-05T17:44:40.721Z,20.40
2019-02-05T17:47:12.255Z,20.40
2019-02-05T17:49:43.831Z,21.00
2019-02-05T17:52:16.158Z,22.20
2019-02-05T17:54:47.756Z,21.40
2019-02-05T17:57:19.336Z,21.50
2019-02-05T17:59:51.175Z,21.80
2019-02-05T18:02:22.668Z,22.60
2019-02-05T18:04:54.597Z,22.50
2019-02-05T18:07:26.442Z,21.60
2019-02-05T18:09:59.440Z,20.90
2019-02-05T18:12:30.968Z,20.40
2019-02-05T18:15:02.801Z,19.60
2019-02-05T18:17:34.898Z,20.70
2019-02-05T18:20:08.796Z,22.10
2019-02-05T18:22:40.699Z,22.90
2019-02-05T18:25:15.987Z,23.20
2019-02-05T18:27:48.296Z,22.70
2019-02-05T18:30:27.358Z,22.60
2019-02-05T18:33:04.909Z,23.30
2019-02-05T18:35:34.798Z,23.80
2019-02-05T18:38:08.635Z,24.00
2019-02-05T18:40:42.279Z,24.30
2019-02-05T18:43:14.760Z,24.40
2019-02-05T18:45:46.634Z,24.50
2019-02-05T18:48:18.244Z,24.50
2019-02-05T18:50:50.330Z,23.90
2019-02-05T18:53:22.066Z,24.10
2019-02-05T18:55:54.509Z,24.20
2019-02-05T18:58:27.010Z,24.20
2019-02-05T19:00:59.438Z,24.50
2019-02-05T19:03:31.297Z,25.00
2019-02-05T19:06:03.332Z,25.30
2019-02-05T19:08:35.658Z,25.40
2019-02-05T19:11:07.553Z,25.30
2019-02-05T19:13:39.150Z,25.20
2019-02-05T19:16:12.104Z,24.60
2019-02-05T19:18:44.013Z,24.40
2019-02-05T19:21:15.831Z,24.10
2019-02-05T19:23:49.649Z,23.80
2019-02-05T19:26:28.581Z,23.90
2019-02-05T19:29:00.340Z,23.60
2019-02-05T19:31:34.572Z,22.90
2019-02-05T19:34:09.384Z,22.60
2019-02-05T19:36:41.244Z,22.70
2019-02-05T19:39:13.164Z,22.10
2019-02-05T19:41:45.144Z,21.50
2019-02-05T19:44:16.816Z,21.10
2019-02-05T19:46:54.011Z,20.60
2019-02-05T19:49:48.077Z,21.00
2019-02-05T19:52:20.067Z,21.40
2019-02-05T19:54:52.182Z,20.90
2019-02-05T19:57:24.208Z,21.10
2019-02-05T19:59:56.261Z,21.00
2019-02-05T20:02:28.406Z,20.30
2019-02-05T20:05:00.218Z,20.10
2019-02-05T20:07:32.216Z,20.50
2019-02-05T20:10:04.605Z,20.40
2019-02-05T20:12:36.627Z,20.10
2019-02-05T20:15:09.673Z,19.80
2019-02-05T20:17:41.727Z,20.40
2019-02-05T20:20:15.443Z,19.60
2019-02-05T20:22:47.763Z,19.10
2019-02-05T20:25:19.954Z,18.80
2019-02-05T20:27:52.121Z,19.10
2019-02-05T20:30:24.482Z,19.10
2019-02-05T20:32:57.037Z,19.80
2019-02-05T20:35:28.912Z,19.70
2019-02-05T20:38:01.095Z,20.60
2019-02-05T20:40:32.726Z,21.10
2019-02-05T20:43:04.757Z,22.30
2019-02-05T20:45:36.404Z,22.40
2019-02-05T20:48:08.372Z,22.60
2019-02-05T20:50:40.569Z,22.20
2019-02-05T20:53:14.301Z,23.10
2019-02-05T20:55:47.531Z,22.60
2019-02-05T20:58:19.718Z,22.90
2019-02-05T21:00:51.351Z,23.70
2019-02-05T21:03:24.042Z,24.10
2019-02-05T21:05:56.024Z,23.90
2019-02-05T21:08:27.980Z,23.40
2019-02-05T21:11:00.197Z,23.70
2019-02-05T21:13:32.122Z,24.00
2019-02-05T21:16:04.421Z,23.80
2019-02-05T21:18:36.661Z,23.60
2019-02-05T21:21:08.754Z,23.60
2019-02-05T21:23:40.854Z,23.50
2019-02-05T21:26:12.649Z,24.10
2019-02-05T21:28:44.846Z,24.70
2019-02-05T21:31:16.646Z,24.70
2019-02-05T21:33:48.430Z,24.30
2019-02-05T21:36:20.134Z,24.00
2019-02-05T21:38:52.075Z,23.80
2019-02-05T21:41:24.006Z,23.80
2019-02-05T21:43:55.888Z,23.90
2019-02-05T21:46:27.540Z,24.10
2019-02-05T21:48:59.300Z,24.30
2019-02-05T21:51:40.091Z,24.40
2019-02-05T21:54:04.659Z,24.60
2019-02-05T21:56:36.478Z,24.20
2019-02-05T21:59:08.405Z,24.20
2019-02-05T22:01:40.295Z,24.40
2019-02-05T22:04:12.115Z,23.30
2019-02-05T22:06:43.736Z,23.50
2019-02-05T22:09:15.962Z,24.00
2019-02-05T22:11:47.880Z,24.20
2019-02-05T22:14:19.673Z,24.40
2019-02-05T22:16:51.160Z,24.20
2019-02-05T22:19:23.363Z,24.20
2019-02-05T22:21:55.083Z,23.80
2019-02-05T22:24:26.773Z,23.50
2019-02-05T22:26:58.905Z,23.70
2019-02-05T22:29:30.842Z,24.10
2019-02-05T22:32:03.427Z,24.40
2019-02-05T22:34:39.336Z,24.40
2019-02-05T22:37:08.408Z,24.40
2019-02-05T22:39:40.617Z,23.90
2019-02-05T22:42:12.438Z,23.80
2019-02-05T22:44:44.751Z,23.90
2019-02-05T22:47:16.385Z,23.50
2019-02-05T22:49:48.259Z,23.00
2019-02-05T22:52:19.803Z,23.30
2019-02-05T22:54:51.413Z,23.40
2019-02-05T22:57:23.241Z,23.10
2019-02-05T22:59:54.750Z,23.90
2019-02-05T23:02:26.295Z,23.50
2019-02-05T23:05:39.579Z,24.20
2019-02-05T23:08:11.208Z,24.70
2019-02-05T23:11:26.107Z,25.00
2019-02-05T23:13:57.640Z,25.30
2019-02-05T23:16:29.284Z,25.20
2019-02-05T23:19:00.813Z,25.00
2019-02-05T23:21:32.611Z,24.70
2019-02-05T23:24:04.378Z,24.70
2019-02-05T23:26:36.084Z,24.50
2019-02-05T23:29:07.527Z,24.10
2019-02-05T23:31:39.258Z,23.70
2019-02-05T23:34:11.093Z,23.30
2019-02-05T23:36:43.276Z,24.00
2019-02-05T23:39:14.764Z,23.80
2019-02-05T23:41:46.376Z,23.50
2019-02-05T23:44:17.835Z,23.10
2019-02-05T23:46:49.375Z,22.90
2019-02-05T23:49:21.116Z,23.60
2019-02-05T23:51:52.823Z,23.90
2019-02-05T23:54:24.529Z,23.00
2019-02-05T23:56:56.624Z,22.90
2019-02-05T23:59:28.474Z,23.40
